createdAt,value
2022-10-11T00:02:05.256Z,81.25
2022-10-11T00:04:31.867Z,81.28
2022-10-11T00:06:58.380Z,81.91
2022-10-11T00:09:26.349Z,82.47
2022-10-11T00:11:54.785Z,83.04
2022-10-11T00:14:21.474Z,83.14
2022-10-11T00:16:47.977Z,83.53
2022-10-11T00:19:14.511Z,84.08
2022-10-11T00:21:41.527Z,84.25
2022-10-11T00:24:08.359Z,84.94
2022-10-11T00:26:36.541Z,85.46
2022-10-11T00:29:03.485Z,85.70
2022-10-11T00:31:34.703Z,85.73
2022-10-11T00:34:02.172Z,86.30
2022-10-11T00:36:28.779Z,86.35
2022-10-11T00:38:55.375Z,86.63
2022-10-11T00:41:22.852Z,86.61
2022-10-11T00:44:13.170Z,86.97
2022-10-11T00:46:42.298Z,87.22
2022-10-11T00:49:15.054Z,87.26
2022-10-11T00:51:47.513Z,86.94
2022-10-11T00:54:18.721Z,87.08
2022-10-11T00:56:48.583Z,87.59
2022-10-11T00:59:21.614Z,88.00
2022-10-11T01:01:48.322Z,87.77
2022-10-11T01:04:14.862Z,88.21
2022-10-11T01:06:42.368Z,87.89
2022-10-11T01:09:09.730Z,87.65
2022-10-11T01:11:39.251Z,87.79
2022-10-11T01:14:20.722Z,87.92
2022-10-11T01:16:55.648Z,88.30
2022-10-11T01:19:38.354Z,88.58
2022-10-11T01:22:21.225Z,88.71
2022-10-11T01:25:06.553Z,89.23
2022-10-11T01:27:43.675Z,89.17
2022-10-11T01:30:21.635Z,89.65
2022-10-11T01:32:55.019Z,89.76
2022-10-11T01:35:26.279Z,90.42
2022-10-11T01:37:57.071Z,90.26
2022-10-11T01:40:27.728Z,90.48
2022-10-11T01:42:55.718Z,91.01
2022-10-11T01:45:24.819Z,90.63
2022-10-11T01:48:01.571Z,90.74
2022-10-11T01:50:37.066Z,90.96
2022-10-11T01:53:16.177Z,91.29
2022-10-11T01:55:50.339Z,91.85
2022-10-11T01:58:29.290Z,91.87
2022-10-11T02:01:05.466Z,91.88
2022-10-11T02:03:43.874Z,91.73
2022-10-11T02:06:16.710Z,91.79
2022-10-11T02:08:53.717Z,92.16
2022-10-11T02:11:25.031Z,91.53
2022-10-11T02:13:56.995Z,90.98
2022-10-11T02:16:32.988Z,91.59
2022-10-11T02:19:03.450Z,91.24
2022-10-11T02:21:34.017Z,91.25
2022-10-11T02:24:05.660Z,91.17
2022-10-11T02:26:34.398Z,90.83
2022-10-11T02:29:04.874Z,90.35
2022-10-11T02:31:35.205Z,90.41
2022-10-11T02:34:11.217Z,90.25
2022-10-11T02:36:46.145Z,90.11
2022-10-11T02:39:17.318Z,90.52
2022-10-11T02:41:46.318Z,89.94
2022-10-11T02:44:18.776Z,90.04
2022-10-11T02:46:48.897Z,90.12
2022-10-11T02:49:16.750Z,90.74
2022-10-11T02:51:43.612Z,91.23
2022-10-11T02:54:10.175Z,90.80
2022-10-11T02:56:36.710Z,91.38
2022-10-11T02:59:03.452Z,90.98
2022-10-11T03:01:29.985Z,91.59
2022-10-11T03:03:57.889Z,91.54
2022-10-11T03:06:24.413Z,91.40
2022-10-11T03:08:50.909Z,91.07
2022-10-11T03:11:17.389Z,90.83
2022-10-11T03:13:43.912Z,91.45
2022-10-11T03:16:11.071Z,91.93
2022-10-11T03:18:37.733Z,92.23
2022-10-11T03:21:05.598Z,92.19
2022-10-11T03:23:32.141Z,92.15
2022-10-11T03:25:58.661Z,92.09
2022-10-11T03:28:25.218Z,91.83
2022-10-11T03:30:52.493Z,92.35
2022-10-11T03:33:19.515Z,91.83
2022-10-11T03:35:47.623Z,91.71
2022-10-11T03:38:18.478Z,91.81
2022-10-11T03:40:45.176Z,92.11
2022-10-11T03:43:11.818Z,91.31
2022-10-11T03:45:39.018Z,90.91
2022-10-11T03:48:06.196Z,91.54
2022-10-11T03:50:33.027Z,91.70
2022-10-11T03:53:00.023Z,90.96
2022-10-11T03:55:28.066Z,91.32
2022-10-11T03:57:54.570Z,90.84
2022-10-11T04:00:21.161Z,90.82
2022-10-11T04:02:47.701Z,91.29
2022-10-11T04:05:14.486Z,91.28
2022-10-11T04:07:41.490Z,91.74
2022-10-11T04:10:08.694Z,91.97
2022-10-11T04:12:36.889Z,92.82
2022-10-11T04:15:04.068Z,92.06
2022-10-11T04:17:30.565Z,92.22
2022-10-11T04:19:57.149Z,92.63
2022-10-11T04:22:23.739Z,92.95
2022-10-11T04:24:50.324Z,93.12
2022-10-11T04:27:16.798Z,92.76
2022-10-11T04:29:44.738Z,92.83
2022-10-11T04:32:11.243Z,93.07
2022-10-11T04:34:37.843Z,92.89
2022-10-11T04:37:04.468Z,92.71
2022-10-11T04:39:31.106Z,92.71
2022-10-11T04:41:57.586Z,92.84
2022-10-11T04:44:24.218Z,93.07
2022-10-11T04:46:52.118Z,93.07
2022-10-11T04:49:18.972Z,92.65
2022-10-11T04:51:45.615Z,92.91
2022-10-11T04:54:12.181Z,91.80
2022-10-11T04:56:38.857Z,92.47
2022-10-11T04:59:05.417Z,92.73
2022-10-11T05:01:32.223Z,92.45
2022-10-11T05:04:00.173Z,92.07
2022-10-11T05:06:26.735Z,92.36
2022-10-11T05:08:53.377Z,93.04
2022-10-11T05:11:20.146Z,93.09
2022-10-11T05:13:47.346Z,93.92
2022-10-11T05:16:17.525Z,93.33
2022-10-11T05:18:44.628Z,94.06
2022-10-11T05:21:18.502Z,94.22
2022-10-11T05:23:45.806Z,93.34
2022-10-11T05:26:12.825Z,93.95
2022-10-11T05:28:39.505Z,93.46
2022-10-11T05:31:06.160Z,93.61
2022-10-11T05:33:32.982Z,93.71
2022-10-11T05:35:59.549Z,93.77
2022-10-11T05:38:27.554Z,93.83
2022-10-11T05:40:54.115Z,93.74
2022-10-11T05:43:20.774Z,93.56
2022-10-11T05:45:47.272Z,93.18
2022-10-11T05:48:13.803Z,93.29
2022-10-11T05:50:40.838Z,93.92
2022-10-11T05:53:07.952Z,93.61
2022-10-11T05:55:39.282Z,93.47
2022-10-11T05:58:07.258Z,93.74
2022-10-11T06:00:36.061Z,94.30
2022-10-11T06:03:02.661Z,93.84
2022-10-11T06:05:29.160Z,94.11
2022-10-11T06:07:55.818Z,93.26
2022-10-11T06:10:22.377Z,94.16
2022-10-11T06:12:50.349Z,94.16
2022-10-11T06:15:17.066Z,94.17
2022-10-11T06:17:43.817Z,94.88
2022-10-11T06:20:10.695Z,94.67
2022-10-11T06:22:37.263Z,94.58
2022-10-11T06:25:04.354Z,94.78
2022-10-11T06:27:31.026Z,95.15
2022-10-11T06:29:59.262Z,94.98
2022-10-11T06:32:25.887Z,95.22
2022-10-11T06:34:52.416Z,95.43
2022-10-11T06:37:19.666Z,95.85
2022-10-11T06:39:46.212Z,95.65
2022-10-11T06:42:13.902Z,95.74
2022-10-11T06:44:40.443Z,95.84
2022-10-11T06:47:09.305Z,96.58
2022-10-11T06:49:35.991Z,96.55
2022-10-11T06:52:02.609Z,96.00
2022-10-11T06:54:29.089Z,96.16
2022-10-11T06:56:56.166Z,95.98
2022-10-11T06:59:22.646Z,96.20
2022-10-11T07:01:49.313Z,96.16
2022-10-11T07:04:17.279Z,96.48
2022-10-11T07:06:43.810Z,96.18
2022-10-11T07:09:10.367Z,95.80
2022-10-11T07:11:37.232Z,95.91
2022-10-11T07:14:05.784Z,95.94
2022-10-11T07:16:32.378Z,95.66
2022-10-11T07:19:01.410Z,96.20
2022-10-11T07:21:31.668Z,96.09
2022-10-11T07:23:58.396Z,96.00
2022-10-11T07:26:25.027Z,96.25
2022-10-11T07:28:51.645Z,96.24
2022-10-11T07:31:20.734Z,95.92
2022-10-11T07:33:47.477Z,95.73
2022-10-11T07:36:15.554Z,94.98
2022-10-11T07:38:45.536Z,95.19
2022-10-11T07:41:12.378Z,95.16
2022-10-11T07:43:39.618Z,95.41
2022-10-11T07:46:06.777Z,95.29
2022-10-11T07:48:35.697Z,95.38
2022-10-11T07:51:03.654Z,95.35
2022-10-11T07:53:30.187Z,94.86
2022-10-11T07:56:01.286Z,94.78
2022-10-11T07:58:28.090Z,94.79
2022-10-11T08:00:54.853Z,94.61
2022-10-11T08:03:21.470Z,94.33
2022-10-11T08:05:48.362Z,94.56
2022-10-11T08:08:15.020Z,94.87
2022-10-11T08:10:41.524Z,94.64
2022-10-11T08:13:09.591Z,94.59
2022-10-11T08:15:36.113Z,94.12
2022-10-11T08:18:02.705Z,92.60
2022-10-11T08:20:29.257Z,90.56
2022-10-11T08:22:55.802Z,91.08
2022-10-11T08:25:22.341Z,91.55
2022-10-11T08:27:48.878Z,91.93
2022-10-11T08:30:16.825Z,91.90
2022-10-11T08:32:43.351Z,92.08
2022-10-11T08:35:09.907Z,91.63
2022-10-11T08:37:36.472Z,90.65
2022-10-11T08:40:04.486Z,90.79
2022-10-11T08:42:36.073Z,90.18
2022-10-11T08:45:12.261Z,90.00
2022-10-11T08:47:43.961Z,89.32
2022-10-11T08:50:23.407Z,88.31
2022-10-11T08:52:56.056Z,87.82
2022-10-11T08:55:28.206Z,87.01
2022-10-11T08:57:56.279Z,87.56
2022-10-11T09:00:24.294Z,87.81
2022-10-11T09:03:08.530Z,86.17
2022-10-11T09:05:45.211Z,85.13
2022-10-11T09:08:20.335Z,85.26
2022-10-11T09:11:04.763Z,84.86
2022-10-11T09:13:44.806Z,86.20
2022-10-11T09:16:22.707Z,86.43
2022-10-11T09:19:10.136Z,85.01
2022-10-11T09:21:45.104Z,85.17
2022-10-11T09:24:34.526Z,83.33
2022-10-11T09:27:07.102Z,82.07
2022-10-11T09:29:50.522Z,82.17
2022-10-11T09:32:19.095Z,82.02
2022-10-11T09:34:53.052Z,82.33
2022-10-11T09:37:26.781Z,82.81
2022-10-11T09:39:57.480Z,82.79
2022-10-11T09:42:24.286Z,82.59
2022-10-11T09:44:52.063Z,82.33
2022-10-11T09:47:22.529Z,82.16
2022-10-11T09:49:54.243Z,82.27
2022-10-11T09:52:21.727Z,80.34
2022-10-11T09:54:50.715Z,79.20
2022-10-11T09:57:23.057Z,80.09
2022-10-11T10:00:01.850Z,81.02
2022-10-11T10:02:42.523Z,80.44
2022-10-11T10:05:18.855Z,79.13
2022-10-11T10:08:04.252Z,79.20
2022-10-11T10:10:35.765Z,79.48
2022-10-11T10:13:05.404Z,77.85
2022-10-11T10:15:34.069Z,77.52
2022-10-11T10:18:01.697Z,77.05
2022-10-11T10:20:31.949Z,77.82
2022-10-11T10:22:58.782Z,77.52
2022-10-11T10:25:33.762Z,76.13
2022-10-11T10:28:02.376Z,76.04
2022-10-11T10:30:34.480Z,74.81
2022-10-11T10:33:06.083Z,74.75
2022-10-11T10:35:41.249Z,74.26
2022-10-11T10:38:21.732Z,73.96
2022-10-11T10:40:52.853Z,74.48
2022-10-11T10:43:21.966Z,74.75
2022-10-11T10:46:05.727Z,74.76
2022-10-11T10:49:18.832Z,73.37
2022-10-11T10:51:39.566Z,70.40
2022-10-11T10:54:15.805Z,70.28
2022-10-11T10:56:48.112Z,71.04
2022-10-11T10:59:34.768Z,70.79
2022-10-11T11:02:28.234Z,68.94
2022-10-11T11:05:04.843Z,69.05
2022-10-11T11:07:41.897Z,70.63
2022-10-11T11:10:15.567Z,70.00
2022-10-11T11:12:49.586Z,70.12
2022-10-11T11:15:27.180Z,68.58
2022-10-11T11:18:06.530Z,67.62
2022-10-11T11:20:50.194Z,68.73
2022-10-11T11:23:22.374Z,67.94
2022-10-11T11:25:57.391Z,69.42
2022-10-11T11:28:47.252Z,69.19
2022-10-11T11:31:32.483Z,68.54
2022-10-11T11:34:09.112Z,69.01
2022-10-11T11:36:40.493Z,68.16
2022-10-11T11:39:15.891Z,68.03
2022-10-11T11:41:47.898Z,68.39
2022-10-11T11:44:21.784Z,67.51
2022-10-11T11:46:57.317Z,67.03
2022-10-11T11:49:30.752Z,65.18
2022-10-11T11:51:59.220Z,65.90
2022-10-11T11:54:36.280Z,64.65
2022-10-11T11:57:12.974Z,63.68
2022-10-11T11:59:48.222Z,63.63
2022-10-11T12:02:35.044Z,63.14
2022-10-11T12:05:01.934Z,62.11
2022-10-11T12:07:29.381Z,58.32
2022-10-11T12:10:17.010Z,57.14
2022-10-11T12:12:43.897Z,56.57
2022-10-11T12:15:20.963Z,56.15
2022-10-11T12:18:04.675Z,54.41
2022-10-11T12:20:32.442Z,54.67
2022-10-11T12:23:00.163Z,54.09
2022-10-11T12:25:40.895Z,54.19
2022-10-11T12:28:45.761Z,53.48
2022-10-11T12:31:20.281Z,52.34
2022-10-11T12:33:53.852Z,50.26
2022-10-11T12:36:35.405Z,50.78
2022-10-11T12:39:50.878Z,52.20
2022-10-11T12:42:25.642Z,50.07
2022-10-11T12:45:30.321Z,49.86
2022-10-11T12:48:10.037Z,50.34
2022-10-11T12:50:50.169Z,49.59
2022-10-11T12:53:30.753Z,49.11
2022-10-11T12:56:01.653Z,48.46
2022-10-11T12:58:33.498Z,48.72
2022-10-11T13:01:10.149Z,46.84
2022-10-11T13:03:41.106Z,45.21
2022-10-11T13:06:15.603Z,46.10
2022-10-11T13:08:45.369Z,46.07
2022-10-11T13:11:18.913Z,46.66
2022-10-11T13:13:50.905Z,46.69
2022-10-11T13:16:19.638Z,46.40
2022-10-11T13:18:48.138Z,47.13
2022-10-11T13:21:24.018Z,47.81
2022-10-11T13:23:54.476Z,45.59
2022-10-11T13:26:21.261Z,46.52
2022-10-11T13:28:49.382Z,47.50
2022-10-11T13:31:15.942Z,47.11
2022-10-11T13:33:44.833Z,46.43
2022-10-11T13:36:15.445Z,46.07
2022-10-11T13:38:50.877Z,45.84
2022-10-11T13:41:18.030Z,46.96
2022-10-11T13:43:45.635Z,46.65
2022-10-11T13:46:19.911Z,47.14
2022-10-11T13:48:46.502Z,46.38
2022-10-11T13:51:17.576Z,46.46
2022-10-11T13:53:57.002Z,46.00
2022-10-11T13:56:23.845Z,46.07
2022-10-11T13:58:53.862Z,46.06
2022-10-11T14:01:23.919Z,45.82
2022-10-11T14:03:55.258Z,45.43
2022-10-11T14:06:22.213Z,46.27
2022-10-11T14:08:51.805Z,44.26
2022-10-11T14:11:34.015Z,45.49
2022-10-11T14:14:20.855Z,45.51
2022-10-11T14:16:56.908Z,46.26
2022-10-11T14:19:24.589Z,45.86
2022-10-11T14:21:53.078Z,46.19
2022-10-11T14:24:21.462Z,45.53
2022-10-11T14:26:50.269Z,45.67
2022-10-11T14:29:21.969Z,45.67
2022-10-11T14:31:49.047Z,45.22
2022-10-11T14:34:19.666Z,46.46
2022-10-11T14:36:47.401Z,46.64
2022-10-11T14:39:15.989Z,46.52
2022-10-11T14:41:42.617Z,48.39
2022-10-11T14:44:09.142Z,47.86
2022-10-11T14:46:35.920Z,47.25
2022-10-11T14:49:02.670Z,47.66
2022-10-11T14:51:34.263Z,48.23
2022-10-11T14:54:00.679Z,46.63
2022-10-11T14:56:27.182Z,47.14
2022-10-11T14:58:53.777Z,46.74
2022-10-11T15:01:20.334Z,46.97
2022-10-11T15:03:46.967Z,45.86
2022-10-11T15:06:17.806Z,46.26
2022-10-11T15:08:46.318Z,47.36
2022-10-11T15:11:15.328Z,47.87
2022-10-11T15:13:41.851Z,47.89
2022-10-11T15:16:10.381Z,47.94
2022-10-11T15:18:36.979Z,48.09
2022-10-11T15:21:03.693Z,47.90
2022-10-11T15:23:30.363Z,48.42
2022-10-11T15:25:58.317Z,49.26
2022-10-11T15:28:27.418Z,49.36
2022-10-11T15:30:54.853Z,49.60
2022-10-11T15:33:21.970Z,49.20
2022-10-11T15:35:48.476Z,49.21
2022-10-11T15:38:17.243Z,49.71
2022-10-11T15:40:44.138Z,49.30
2022-10-11T15:43:12.271Z,49.97
2022-10-11T15:45:38.979Z,50.86
2022-10-11T15:48:06.077Z,51.74
2022-10-11T15:50:34.848Z,52.11
2022-10-11T15:53:02.530Z,52.72
2022-10-11T15:55:29.604Z,53.24
2022-10-11T15:57:56.265Z,54.22
2022-10-11T16:00:24.455Z,54.82
2022-10-11T16:02:51.448Z,54.92
2022-10-11T16:05:18.805Z,55.36
2022-10-11T16:07:45.556Z,55.23
2022-10-11T16:10:12.062Z,55.54
2022-10-11T16:12:38.803Z,56.39
2022-10-11T16:15:06.523Z,56.97
2022-10-11T16:17:34.561Z,57.85
2022-10-11T16:20:01.082Z,58.97
2022-10-11T16:22:27.831Z,59.29
2022-10-11T16:24:54.425Z,60.21
2022-10-11T16:27:21.008Z,61.29
2022-10-11T16:29:47.579Z,62.00
2022-10-11T16:32:14.197Z,63.16
2022-10-11T16:34:42.202Z,63.78
2022-10-11T16:37:08.987Z,64.06
2022-10-11T16:39:35.509Z,64.39
2022-10-11T16:42:02.074Z,65.31
2022-10-11T16:44:28.803Z,65.37
2022-10-11T16:46:55.497Z,65.88
2022-10-11T16:49:24.690Z,66.05
2022-10-11T16:51:54.678Z,66.90
2022-10-11T16:54:21.561Z,67.42
2022-10-11T16:56:48.185Z,68.20
2022-10-11T16:59:14.947Z,68.77
2022-10-11T17:01:41.534Z,69.26
2022-10-11T17:04:09.083Z,69.14
2022-10-11T17:06:35.946Z,69.41
2022-10-11T17:09:04.406Z,70.17
2022-10-11T17:11:30.956Z,70.93
2022-10-11T17:13:59.206Z,71.27
2022-10-11T17:16:25.758Z,72.00
2022-10-11T17:18:52.546Z,72.55
2022-10-11T17:21:20.518Z,73.69
2022-10-11T17:23:47.901Z,74.43
2022-10-11T17:26:20.085Z,75.32
2022-10-11T17:28:46.965Z,75.55
2022-10-11T17:31:13.533Z,75.88
2022-10-11T17:33:40.067Z,76.15
2022-10-11T17:36:14.862Z,76.52
2022-10-11T17:38:41.480Z,77.23
2022-10-11T17:41:08.679Z,77.52
2022-10-11T17:43:37.883Z,78.35
2022-10-11T17:46:05.791Z,78.66
2022-10-11T17:48:33.811Z,78.47
2022-10-11T17:51:06.020Z,79.84
2022-10-11T17:53:32.901Z,79.74
2022-10-11T17:55:59.438Z,80.32
2022-10-11T17:58:26.059Z,80.24
2022-10-11T18:00:53.974Z,80.61
2022-10-11T18:03:20.785Z,80.79
2022-10-11T18:05:47.316Z,81.12
2022-10-11T18:08:13.911Z,80.88
2022-10-11T18:10:45.238Z,81.57
2022-10-11T18:13:15.432Z,81.88
2022-10-11T18:15:42.039Z,81.93
2022-10-11T18:18:10.104Z,82.45
2022-10-11T18:20:36.991Z,82.46
2022-10-11T18:23:03.882Z,82.41
2022-10-11T18:25:33.026Z,82.51
2022-10-11T18:27:59.679Z,82.86
2022-10-11T18:30:26.439Z,82.90
2022-10-11T18:32:53.039Z,82.98
2022-10-11T18:35:21.027Z,83.47
2022-10-11T18:37:47.632Z,83.35
2022-10-11T18:40:14.191Z,84.38
2022-10-11T18:42:40.779Z,84.69
2022-10-11T18:45:08.942Z,84.60
2022-10-11T18:47:35.570Z,85.16
2022-10-11T18:50:02.125Z,84.98
2022-10-11T18:52:30.106Z,85.45
2022-10-11T18:54:56.656Z,85.21
2022-10-11T18:57:23.388Z,85.18
2022-10-11T18:59:49.935Z,85.48
2022-10-11T19:02:16.495Z,85.79
2022-10-11T19:04:43.053Z,85.73
2022-10-11T19:07:09.698Z,85.51
2022-10-11T19:09:37.637Z,86.00
2022-10-11T19:12:04.424Z,86.50
2022-10-11T19:14:30.951Z,86.74
2022-10-11T19:16:57.833Z,86.85
2022-10-11T19:19:26.121Z,86.75
2022-10-11T19:21:53.184Z,86.08
2022-10-11T19:24:21.626Z,86.23
2022-10-11T19:26:50.449Z,86.52
2022-10-11T19:29:18.977Z,86.49
2022-10-11T19:31:47.624Z,86.20
2022-10-11T19:34:14.858Z,86.52
2022-10-11T19:36:41.867Z,86.30
2022-10-11T19:39:10.163Z,86.21
2022-10-11T19:41:36.779Z,85.77
2022-10-11T19:44:05.258Z,86.17
2022-10-11T19:46:50.386Z,87.03
2022-10-11T19:49:17.449Z,86.64
2022-10-11T19:51:44.001Z,86.58
2022-10-11T19:54:12.331Z,86.50
2022-10-11T19:56:39.099Z,86.88
2022-10-11T19:59:08.430Z,86.67
2022-10-11T20:01:35.981Z,86.69
2022-10-11T20:04:05.067Z,86.81
2022-10-11T20:06:38.050Z,87.12
2022-10-11T20:09:28.059Z,86.70
2022-10-11T20:11:52.453Z,87.21
2022-10-11T20:14:20.400Z,87.46
2022-10-11T20:16:50.013Z,87.52
2022-10-11T20:19:17.255Z,87.49
2022-10-11T20:21:44.147Z,87.53
2022-10-11T20:24:10.762Z,87.52
2022-10-11T20:26:37.275Z,88.04
2022-10-11T20:29:03.931Z,87.87
2022-10-11T20:31:33.637Z,87.86
2022-10-11T20:34:02.518Z,88.40
2022-10-11T20:36:30.557Z,88.08
2022-10-11T20:38:58.060Z,88.40
2022-10-11T20:41:26.613Z,88.99
2022-10-11T20:43:55.441Z,88.04
2022-10-11T20:46:23.463Z,88.65
2022-10-11T20:48:55.516Z,88.54
2022-10-11T20:51:26.342Z,88.46
2022-10-11T20:53:53.387Z,88.93
2022-10-11T20:56:21.842Z,89.08
2022-10-11T20:58:50.764Z,89.35
2022-10-11T21:01:19.316Z,89.22
2022-10-11T21:03:46.151Z,88.99
2022-10-11T21:06:14.137Z,88.37
2022-10-11T21:08:40.888Z,88.14
2022-10-11T21:11:08.565Z,88.71
2022-10-11T21:13:35.988Z,89.15
2022-10-11T21:16:07.214Z,89.47
2022-10-11T21:18:34.013Z,88.94
2022-10-11T21:21:06.003Z,89.10
2022-10-11T21:23:33.921Z,89.19
2022-10-11T21:26:01.495Z,88.81
2022-10-11T21:28:28.225Z,89.29
2022-10-11T21:30:54.782Z,89.01
2022-10-11T21:33:21.456Z,89.19
2022-10-11T21:35:48.207Z,89.81
2022-10-11T21:38:14.808Z,89.43
2022-10-11T21:40:42.653Z,90.14
2022-10-11T21:43:09.217Z,90.29
2022-10-11T21:45:36.788Z,89.80
2022-10-11T21:48:04.024Z,90.00
2022-10-11T21:50:30.711Z,90.39
2022-10-11T21:52:57.290Z,90.65
2022-10-11T21:55:23.794Z,90.18
2022-10-11T21:57:51.748Z,90.31
2022-10-11T22:00:18.319Z,89.81
2022-10-11T22:02:44.934Z,90.29
2022-10-11T22:05:11.541Z,90.27
2022-10-11T22:07:38.123Z,90.46
2022-10-11T22:10:05.167Z,89.32
2022-10-11T22:12:31.779Z,89.75
2022-10-11T22:14:59.646Z,90.06
2022-10-11T22:17:26.480Z,89.79
2022-10-11T22:19:53.011Z,90.21
2022-10-11T22:22:19.770Z,89.73
2022-10-11T22:24:46.278Z,89.52
2022-10-11T22:27:13.084Z,89.57
2022-10-11T22:29:39.623Z,89.08
2022-10-11T22:32:07.595Z,89.28
2022-10-11T22:34:34.146Z,89.11
2022-10-11T22:37:00.893Z,89.03
2022-10-11T22:39:27.502Z,88.83
2022-10-11T22:41:54.750Z,89.14
2022-10-11T22:44:21.818Z,89.32
2022-10-11T22:46:48.523Z,89.15
2022-10-11T22:49:16.374Z,89.45
2022-10-11T22:51:42.936Z,89.34
2022-10-11T22:54:10.690Z,89.26
2022-10-11T22:56:37.336Z,89.29
2022-10-11T22:59:04.497Z,88.92
2022-10-11T23:01:31.038Z,89.85
2022-10-11T23:03:57.879Z,89.47
2022-10-11T23:06:25.870Z,89.92
2022-10-11T23:08:52.624Z,89.99
2022-10-11T23:11:19.228Z,89.96
2022-10-11T23:13:45.748Z,89.66
2022-10-11T23:16:12.594Z,89.58
2022-10-11T23:18:39.697Z,89.89
2022-10-11T23:21:07.242Z,90.26
2022-10-11T23:23:35.462Z,90.03
2022-10-11T23:26:06.902Z,90.04
2022-10-11T23:28:33.706Z,90.11
2022-10-11T23:31:00.470Z,91.05
2022-10-11T23:33:27.530Z,91.07
2022-10-11T23:35:53.989Z,90.67
2022-10-11T23:38:20.506Z,90.49
2022-10-11T23:40:48.389Z,91.14
2022-10-11T23:43:14.948Z,90.41
2022-10-11T23:45:45.326Z,90.81
2022-10-11T23:48:12.099Z,90.71
2022-10-11T23:50:38.621Z,90.84
2022-10-11T23:53:05.225Z,90.50
2022-10-11T23:55:31.745Z,91.01
2022-10-11T23:57:59.687Z,90.78
